Latest Weather Observations for Ocean Reef

IDW60801

Issued at 1:40 am WST Monday 5 December 2022 (issued every 10 minutes, with the page automatically refreshed every 10 minutes)

About weather observations | Map of weather stations | Latest weather observations for WA | Other Formats
Station Details ID: 009214 Name: OCEAN REEF Lat: -31.76 Lon: 115.73 Height: 10.0 m
Data from the previous 72 hours. | See also: Recent months at Ocean Reef
Date/Time
WST
Temp
°C
App
Temp
°C
Dew
Point
°C
Rel
Hum
%
Delta-T
°C
Wind Press
QNH
hPa
Press
MSL
hPa
Rain since
9am
mm
Dir  Spd
km/h
Gust
km/h
Spd
kts
Gust
kts
05/01:30am - - - - - SE 19 32 10 17 - - -
05/01:00am - - - - - SE 17 24 9 13 - - -
05/12:30am - - - - - SE 19 33 10 18 - - -
05/12:00am - - - - - SE 20 33 11 18 - - -
 
Date/Time
WST
Temp
°C
App
Temp
°C
Dew
Point
°C
Rel
Hum
%
Delta-T
°C
Wind Press
QNH
hPa
Press
MSL
hPa
Rain since
9am
mm
Dir  Spd
km/h
Gust
km/h
Spd
kts
Gust
kts
04/11:30pm - - - - - SE 22 32 12 17 - - -
04/11:00pm - - - - - ESE 26 39 14 21 - - -
04/10:30pm - - - - - SE 24 35 13 19 - - -
04/10:00pm - - - - - SE 24 39 13 21 - - -
04/09:30pm - - - - - SE 26 33 14 18 - - -
04/09:00pm - - - - - SE 22 32 12 17 - - -
04/08:30pm - - - - - SSE 30 39 16 21 - - -
04/08:00pm - - - - - SSE 30 39 16 21 - - -
04/07:30pm - - - - - SSE 28 37 15 20 - - -
04/07:00pm - - - - - SSE 20 28 11 15 - - -
04/06:30pm - - - - - S 28 33 15 18 - - -
04/06:00pm - - - - - SSW 37 46 20 25 - - -
04/05:30pm - - - - - SSW 41 50 22 27 - - -
04/05:00pm - - - - - SSW 43 52 23 28 - - -
04/04:30pm - - - - - SSW 41 52 22 28 - - -
04/04:00pm - - - - - SSW 43 54 23 29 - - -
04/03:30pm - - - - - SSW 43 52 23 28 - - -
04/03:00pm - - - - - SSW 41 50 22 27 - - -
04/02:30pm - - - - - SW 33 43 18 23 - - -
04/02:00pm - - - - - SW 30 37 16 20 - - -
04/01:30pm - - - - - SW 26 39 14 21 - - -
04/01:00pm - - - - - SE 17 32 9 17 - - -
04/12:30pm - - - - - ESE 20 33 11 18 - - -
04/12:00pm - - - - - SE 17 28 9 15 - - -
04/11:30am - - - - - SE 24 33 13 18 - - -
04/11:00am - - - - - ESE 19 30 10 16 - - -
04/10:30am - - - - - ESE 20 30 11 16 - - -
04/10:00am - - - - - ESE 24 35 13 19 - - -
04/09:30am - - - - - ESE 24 37 13 20 - - -
04/09:00am - - - - - ESE 22 35 12 19 - - -
04/08:30am - - - - - ESE 22 35 12 19 - - -
04/08:00am - - - - - ESE 24 37 13 20 - - -
04/07:30am - - - - - SE 22 32 12 17 - - -
04/07:00am - - - - - ESE 30 39 16 21 - - -
04/06:30am - - - - - SE 20 33 11 18 - - -
04/06:00am - - - - - SE 17 22 9 12 - - -
04/05:30am - - - - - SE 13 24 7 13 - - -
04/05:00am - - - - - SE 13 19 7 10 - - -
04/04:30am - - - - - SE 15 19 8 10 - - -
04/04:00am - - - - - ESE 19 28 10 15 - - -
04/03:30am - - - - - SE 17 30 9 16 - - -
04/03:00am - - - - - SE 20 33 11 18 - - -
04/02:30am - - - - - SE 24 33 13 18 - - -
04/02:00am - - - - - SE 24 35 13 19 - - -
04/01:30am - - - - - SE 24 39 13 21 - - -
04/01:00am - - - - - SE 28 50 15 27 - - -
04/12:59am - - - - - SE 28 50 15 27 - - -
04/12:30am - - - - - SE 20 33 11 18 - - -
04/12:00am - - - - - ESE 30 43 16 23 - - -
 
Date/Time
WST
Temp
°C
App
Temp
°C
Dew
Point
°C
Rel
Hum
%
Delta-T
°C
Wind Press
QNH
hPa
Press
MSL
hPa
Rain since
9am
mm
Dir  Spd
km/h
Gust
km/h
Spd
kts
Gust
kts
03/11:30pm - - - - - ESE 24 37 13 20 - - -
03/11:00pm - - - - - ESE 28 44 15 24 - - -
03/10:30pm - - - - - SSE 22 32 12 17 - - -
03/10:00pm - - - - - SSE 22 33 12 18 - - -
03/09:30pm - - - - - S 22 30 12 16 - - -
03/09:00pm - - - - - S 32 39 17 21 - - -
03/08:30pm - - - - - S 35 43 19 23 - - -
03/08:00pm - - - - - S 37 52 20 28 - - -
03/07:30pm - - - - - S 41 50 22 27 - - -
03/07:00pm - - - - - S 41 50 22 27 - - -
03/06:30pm - - - - - S 35 44 19 24 - - -
03/06:00pm - - - - - S 35 44 19 24 - - -
03/05:30pm - - - - - SSW 35 43 19 23 - - -
03/05:00pm - - - - - SSW 35 43 19 23 - - -
03/04:30pm - - - - - SSW 39 46 21 25 - - -
03/04:00pm - - - - - SSW 37 44 20 24 - - -
03/03:30pm - - - - - SSW 37 44 20 24 - - -
03/03:00pm - - - - - SSW 35 41 19 22 - - -
03/02:30pm - - - - - SSW 39 44 21 24 - - -
03/02:00pm - - - - - SSW 35 41 19 22 - - -
03/01:30pm - - - - - SSW 33 39 18 21 - - -
03/01:00pm - - - - - SSW 32 37 17 20 - - -
03/12:30pm - - - - - SSW 32 35 17 19 - - -
03/12:00pm - - - - - SSW 32 35 17 19 - - -
03/11:30am - - - - - SSW 32 35 17 19 - - -
03/11:00am - - - - - SW 26 32 14 17 - - -
03/10:30am - - - - - SE 13 20 7 11 - - -
03/10:00am - - - - - SE 15 26 8 14 - - -
03/09:30am - - - - - ESE 19 30 10 16 - - -
03/09:00am - - - - - ESE 20 28 11 15 - - -
03/08:30am - - - - - SE 17 22 9 12 - - -
03/08:00am - - - - - SE 19 30 10 16 - - -
03/07:30am - - - - - SE 19 26 10 14 - - -
03/07:00am - - - - - SE 22 30 12 16 - - -
03/06:30am - - - - - SE 20 28 11 15 - - -
03/06:00am - - - - - ESE 17 20 9 11 - - -
03/05:30am - - - - - SE 11 15 6 8 - - -
03/05:00am - - - - - SE 9 13 5 7 - - -
03/04:30am - - - - - SE 9 13 5 7 - - -
03/04:00am - - - - - SE 11 13 6 7 - - -
03/03:30am - - - - - SSE 15 17 8 9 - - -
03/03:00am - - - - - SSE 17 26 9 14 - - -
03/02:30am - - - - - SSE 17 22 9 12 - - -
03/02:00am - - - - - SSE 17 24 9 13 - - -
03/01:30am - - - - - S 28 35 15 19 - - -
03/01:00am - - - - - S 30 35 16 19 - - -
03/12:30am - - - - - S 28 35 15 19 - - -
03/12:00am - - - - - S 30 37 16 20 - - -
 
Date/Time
WST
Temp
°C
App
Temp
°C
Dew
Point
°C
Rel
Hum
%
Delta-T
°C
Wind Press
QNH
hPa
Press
MSL
hPa
Rain since
9am
mm
Dir  Spd
km/h
Gust
km/h
Spd
kts
Gust
kts
02/11:30pm - - - - - S 30 37 16 20 - - -
02/11:00pm - - - - - S 32 37 17 20 - - -
02/10:30pm - - - - - SSW 35 39 19 21 - - -
02/10:00pm - - - - - SSW 32 37 17 20 - - -
02/09:30pm - - - - - SSW 30 35 16 19 - - -
02/09:00pm - - - - - SSW 28 32 15 17 - - -
02/08:30pm - - - - - SSW 26 32 14 17 - - -
02/08:00pm - - - - - SSW 26 32 14 17 - - -
02/07:30pm - - - - - SSW 26 30 14 16 - - -
02/07:00pm - - - - - SSW 26 30 14 16 - - -
02/06:30pm - - - - - SSW 28 32 15 17 - - -
02/06:00pm - - - - - SSW 26 32 14 17 - - -
02/05:30pm - - - - - SSW 28 32 15 17 - - -
02/05:00pm - - - - - SSW 28 32 15 17 - - -
02/04:30pm - - - - - SSW 30 35 16 19 - - -
02/04:00pm - - - - - SSW 32 35 17 19 - - -
02/03:30pm - - - - - SSW 30 35 16 19 - - -
02/03:00pm - - - - - SSW 30 35 16 19 - - -
02/02:30pm - - - - - SSW 30 33 16 18 - - -
02/02:00pm - - - - - SSW 32 39 17 21 - - -
02/01:30pm - - - - - SSW 32 37 17 20 - - -
02/01:00pm - - - - - SSW 33 37 18 20 - - -
02/12:30pm - - - - - SSW 32 35 17 19 - - -
02/12:00pm - - - - - SSW 28 33 15 18 - - -
02/11:30am - - - - - SSW 26 30 14 16 - - -
02/11:00am - - - - - SSW 24 28 13 15 - - -
02/10:30am - - - - - SSW 24 28 13 15 - - -
02/10:00am - - - - - SSW 22 28 12 15 - - -
02/09:30am - - - - - SSW 19 24 10 13 - - -
02/09:00am - - - - - SSW 19 22 10 12 - - -
02/08:30am - - - - - SSW 17 19 9 10 - - -
02/08:00am - - - - - S 15 17 8 9 - - -
02/07:30am - - - - - SSE 13 19 7 10 - - -
02/07:00am - - - - - SSE 13 19 7 10 - - -
02/06:30am - - - - - SSE 13 17 7 9 - - -
02/06:00am - - - - - SSE 17 22 9 12 - - -
02/05:30am - - - - - SSE 15 20 8 11 - - -
02/05:00am - - - - - SSE 15 22 8 12 - - -
02/04:30am - - - - - SSE 15 20 8 11 - - -
02/04:00am - - - - - S 24 30 13 16 - - -
02/03:30am - - - - - S 30 35 16 19 - - -
02/03:00am - - - - - S 30 35 16 19 - - -
02/02:30am - - - - - S 26 33 14 18 - - -
02/02:00am - - - - - SSW 28 32 15 17 - - -

Other formats

Comma delimited format used in spreadsheet applications
http://www.bom.gov.au/fwo/IDW60801/IDW60801.94607.axf

JavaScript Object Notation format (JSON) in row-major order
http://www.bom.gov.au/fwo/IDW60801/IDW60801.94607.json

Data quality

Most of these data are generated automatically and are frequently updated. Quality checks on data are not normally performed. It is possible for incorrect values to appear. Refer to information at About Latest Weather Observations and please check the disclaimer before using these data.